Cruise inventory

Ignat Pavlyuchenkov IP 9/91

Cruise plan

Cruise Info. 
Ship name (ship code)Ignat Pavlyuchenkov (90GP)
Cruise identifierIP 9/91
Cruise period1991-10-17 — 1991-11-05
StatusCompleted
Data held at BODC 
Series/Profiles 
115  CTD/STD cast
Transmittance and attenuance of the water column
Electrical conductivity of the water column
Chlorophyll pigment concentrations in water bodies
Vertical spatial coordinates
Salinity of the water column
Temperature of the water column
Transmittance and attenuance of the water column
Electrical conductivity of the water column
Chlorophyll pigment concentrations in water bodies
Vertical spatial coordinates
Salinity of the water column
Temperature of the water column

BODC idDate/TimeLocationDoc.
3429641991-11-04 05:04  — 1991-11-04 05:14 28° 52' 0" N  15° 33' 0" W  View metadata report for BODC series reference number 342964
3429761991-11-04 06:03  — 1991-11-04 06:18 28° 52' 0" N  15° 33' 0" W  View metadata report for BODC series reference number 342976
3429881991-11-04 07:00  — 1991-11-04 07:10 28° 52' 0" N  15° 33' 0" W  View metadata report for BODC series reference number 342988
3430031991-11-04 08:16  — 1991-11-04 08:26 28° 52' 0" N  15° 33' 0" W  View metadata report for BODC series reference number 343003
3430151991-11-04 09:00  — 1991-11-04 09:15 28° 52' 0" N  15° 33' 0" W  View metadata report for BODC series reference number 343015
3429271991-11-04 00:00  — 1991-11-04 00:14 28° 52' 0" N  15° 33' 0" W  View metadata report for BODC series reference number 342927
3429391991-11-04 01:07  — 1991-11-04 01:17 28° 52' 0" N  15° 33' 0" W  View metadata report for BODC series reference number 342939
3429401991-11-04 02:04  — 1991-11-04 02:14 28° 52' 0" N  15° 33' 0" W  View metadata report for BODC series reference number 342940
3429521991-11-04 03:10  — 1991-11-04 03:25 28° 52' 0" N  15° 33' 0" W  View metadata report for BODC series reference number 342952
3423621991-10-31 07:20  — 1991-10-31 07:36 27° 36' 0" N  14° 56' 59" W  View metadata report for BODC series reference number 342362
3423741991-10-31 11:37  — 1991-10-31 11:53 27° 23' 59" N  15° 10' 0" W  View metadata report for BODC series reference number 342374
3423861991-10-31 14:35  — 1991-10-31 14:50 27° 23' 59" N  15° 23' 5" W  View metadata report for BODC series reference number 342386
3423981991-10-31 16:56  — 1991-10-31 17:11 27° 23' 59" N  15° 35' 59" W  View metadata report for BODC series reference number 342398
3424051991-10-31 19:32  — 1991-10-31 19:46 27° 23' 59" N  15° 49' 0" W  View metadata report for BODC series reference number 342405
3424171991-10-31 21:40  — 1991-10-31 21:55 27° 23' 59" N  16° 1' 59" W  View metadata report for BODC series reference number 342417
3424291991-11-01 00:22  — 1991-11-01 00:38 27° 23' 59" N  16° 15' 0" W  View metadata report for BODC series reference number 342429
3424301991-11-01 02:45  — 1991-11-01 03:00 27° 23' 59" N  16° 28' 0" W  View metadata report for BODC series reference number 342430
3424421991-11-01 05:40  — 1991-11-01 05:55 27° 11' 59" N  16° 28' 0" W  View metadata report for BODC series reference number 342442
3424541991-11-01 07:46  — 1991-11-01 08:02 27° 11' 59" N  16° 15' 0" W  View metadata report for BODC series reference number 342454
3424661991-11-01 11:03  — 1991-11-01 11:18 27° 11' 59" N  16° 1' 59" W  View metadata report for BODC series reference number 342466
3424781991-11-01 13:17  — 1991-11-01 13:32 27° 11' 59" N  15° 49' 0" W  View metadata report for BODC series reference number 342478
3424911991-11-01 17:37  — 1991-11-01 17:52 27° 11' 59" N  15° 35' 59" W  View metadata report for BODC series reference number 342491
3425091991-11-01 21:11  — 1991-11-01 21:25 27° 23' 59" N  15° 49' 0" W  View metadata report for BODC series reference number 342509
3425101991-11-01 22:22  — 1991-11-01 22:31 27° 23' 59" N  15° 49' 0" W  View metadata report for BODC series reference number 342510
3425221991-11-01 23:37  — 1991-11-01 23:47 27° 23' 59" N  15° 49' 0" W  View metadata report for BODC series reference number 342522
3425341991-11-02 00:04  — 1991-11-02 00:19 27° 23' 59" N  15° 49' 0" W  View metadata report for BODC series reference number 342534
3425461991-11-02 01:14  — 1991-11-02 01:24 27° 23' 59" N  15° 49' 0" W  View metadata report for BODC series reference number 342546
3425581991-11-02 02:05  — 1991-11-02 02:15 27° 23' 59" N  15° 49' 0" W  View metadata report for BODC series reference number 342558
3425711991-11-02 03:07  — 1991-11-02 03:22 27° 23' 59" N  15° 49' 0" W  View metadata report for BODC series reference number 342571
3425831991-11-02 04:16  — 1991-11-02 04:26 27° 23' 59" N  15° 49' 0" W  View metadata report for BODC series reference number 342583
3425951991-11-02 05:20  — 1991-11-02 05:30 27° 23' 59" N  15° 49' 0" W  View metadata report for BODC series reference number 342595
3426021991-11-02 06:08  — 1991-11-02 06:18 27° 23' 59" N  15° 49' 0" W  View metadata report for BODC series reference number 342602
3426141991-11-02 06:57  — 1991-11-02 07:07 27° 23' 59" N  15° 49' 0" W  View metadata report for BODC series reference number 342614
3426261991-11-02 08:00  — 1991-11-02 08:10 27° 23' 59" N  15° 49' 0" W  View metadata report for BODC series reference number 342626
3426381991-11-02 08:58  — 1991-11-02 09:15 27° 23' 59" N  15° 49' 0" W  View metadata report for BODC series reference number 342638
3426511991-11-02 10:18  — 1991-11-02 10:29 27° 23' 59" N  15° 49' 0" W  View metadata report for BODC series reference number 342651
3426631991-11-02 11:03  — 1991-11-02 11:13 27° 23' 59" N  15° 49' 0" W  View metadata report for BODC series reference number 342663
3426751991-11-02 12:04  — 1991-11-02 12:19 27° 23' 59" N  15° 49' 0" W  View metadata report for BODC series reference number 342675
3426871991-11-02 13:28  — 1991-11-02 13:43 27° 23' 59" N  15° 49' 0" W  View metadata report for BODC series reference number 342687
3426991991-11-02 14:15  — 1991-11-02 14:25 27° 23' 59" N  15° 49' 0" W  View metadata report for BODC series reference number 342699
3427061991-11-02 15:07  — 1991-11-02 15:22 27° 23' 59" N  15° 49' 0" W  View metadata report for BODC series reference number 342706
3427181991-11-02 17:01  — 1991-11-02 17:11 27° 23' 59" N  15° 49' 0" W  View metadata report for BODC series reference number 342718
3427311991-11-02 18:25  — 1991-11-02 18:39 27° 23' 59" N  15° 49' 0" W  View metadata report for BODC series reference number 342731
3427431991-11-02 19:18  — 1991-11-02 19:28 27° 23' 59" N  15° 49' 0" W  View metadata report for BODC series reference number 342743
3427551991-11-02 20:03  — 1991-11-02 20:12 27° 23' 59" N  15° 49' 0" W  View metadata report for BODC series reference number 342755
3427671991-11-02 21:25  — 1991-11-02 21:39 27° 23' 59" N  15° 49' 0" W  View metadata report for BODC series reference number 342767
3427791991-11-03 09:11  — 1991-11-03 09:27 28° 52' 0" N  15° 33' 0" W  View metadata report for BODC series reference number 342779
3427801991-11-03 10:18  — 1991-11-03 10:27 28° 52' 0" N  15° 33' 0" W  View metadata report for BODC series reference number 342780
3427921991-11-03 11:04  — 1991-11-03 11:14 28° 52' 0" N  15° 33' 0" W  View metadata report for BODC series reference number 342792
3428111991-11-03 12:23  — 1991-11-03 12:38 28° 52' 0" N  15° 33' 0" W  View metadata report for BODC series reference number 342811
3428231991-11-03 13:10  — 1991-11-03 13:19 28° 52' 0" N  15° 33' 0" W  View metadata report for BODC series reference number 342823
3428351991-11-03 14:07  — 1991-11-03 14:17 28° 52' 0" N  15° 33' 0" W  View metadata report for BODC series reference number 342835
3428471991-11-03 15:05  — 1991-11-03 15:20 28° 52' 0" N  15° 33' 0" W  View metadata report for BODC series reference number 342847
3428591991-11-03 16:55  — 1991-11-03 17:05 28° 52' 0" N  15° 33' 0" W  View metadata report for BODC series reference number 342859
3428601991-11-03 18:05  — 1991-11-03 18:20 28° 52' 0" N  15° 33' 0" W  View metadata report for BODC series reference number 342860
3428721991-11-03 19:04  — 1991-11-03 19:14 28° 52' 0" N  15° 33' 0" W  View metadata report for BODC series reference number 342872
3428841991-11-03 20:05  — 1991-11-03 20:20 28° 52' 0" N  15° 33' 0" W  View metadata report for BODC series reference number 342884
3428961991-11-03 21:04  — 1991-11-03 21:19 28° 52' 0" N  15° 33' 0" W  View metadata report for BODC series reference number 342896
3429031991-11-03 22:07  — 1991-11-03 22:17 28° 52' 0" N  15° 33' 0" W  View metadata report for BODC series reference number 342903
3429151991-11-03 23:01  — 1991-11-03 23:11 28° 52' 0" N  15° 33' 0" W  View metadata report for BODC series reference number 342915
3423251991-10-30 17:39  — 1991-10-30 17:54 27° 36' 0" N  15° 49' 0" W  View metadata report for BODC series reference number 342325
3423371991-10-30 21:48  — 1991-10-30 22:03 27° 36' 0" N  15° 36' 11" W  View metadata report for BODC series reference number 342337
3423491991-10-31 00:09  — 1991-10-31 00:24 27° 36' 0" N  15° 22' 59" W  View metadata report for BODC series reference number 342349
3423501991-10-31 04:48  — 1991-10-31 05:05 27° 36' 0" N  15° 10' 0" W  View metadata report for BODC series reference number 342350
3417521991-10-18 13:35  — 1991-10-18 13:52 29° 31' 48" N  18° 40' 36" W  View metadata report for BODC series reference number 341752
3417641991-10-18 16:40  — 1991-10-18 16:45 29° 30' 0" N  18° 14' 23" W  View metadata report for BODC series reference number 341764
3417761991-10-18 20:56  — 1991-10-18 21:16 29° 30' 0" N  18° 11' 48" W  View metadata report for BODC series reference number 341776
3417881991-10-19 01:00  — 1991-10-19 01:28 29° 30' 0" N  17° 43' 41" W  View metadata report for BODC series reference number 341788
3418071991-10-19 05:38  — 1991-10-19 06:00 29° 30' 0" N  17° 15' 24" W  View metadata report for BODC series reference number 341807
3418191991-10-19 11:05  — 1991-10-19 11:30 29° 30' 0" N  16° 47' 12" W  View metadata report for BODC series reference number 341819
3418201991-10-19 15:44  — 1991-10-19 16:09 29° 30' 0" N  16° 19' 0" W  View metadata report for BODC series reference number 341820
3418321991-10-19 20:49  — 1991-10-19 21:10 29° 30' 0" N  15° 50' 42" W  View metadata report for BODC series reference number 341832
3418441991-10-20 02:50  — 1991-10-20 03:10 29° 30' 0" N  15° 21' 18" W  View metadata report for BODC series reference number 341844
3418561991-10-20 06:50  — 1991-10-20 07:12 29° 30' 0" N  14° 53' 30" W  View metadata report for BODC series reference number 341856
3418681991-10-20 10:54  — 1991-10-20 11:14 29° 30' 0" N  14° 25' 0" W  View metadata report for BODC series reference number 341868
3418811991-10-20 15:49  — 1991-10-20 16:06 29° 30' 0" N  13° 58' 29" W  View metadata report for BODC series reference number 341881
3418931991-10-21 03:07  — 1991-10-21 03:28 29° 29' 53" N  13° 32' 17" W  View metadata report for BODC series reference number 341893
3419001991-10-21 07:45  — 1991-10-21 08:15 29° 30' 0" N  13° 5' 59" W  View metadata report for BODC series reference number 341900
3419121991-10-21 11:52  — 1991-10-21 12:17 29° 30' 0" N  12° 13' 59" W  View metadata report for BODC series reference number 341912
3419241991-10-22 07:36  — 1991-10-22 07:58 27° 30' 0" N  14° 25' 18" W  View metadata report for BODC series reference number 341924
3419361991-10-22 19:33  — 1991-10-22 19:43 27° 30' 0" N  14° 52' 59" W  View metadata report for BODC series reference number 341936
3419481991-10-22 23:23  — 1991-10-22 23:33 27° 30' 0" N  15° 21' 18" W  View metadata report for BODC series reference number 341948
3419611991-10-23 03:11  — 1991-10-23 03:22 27° 30' 0" N  15° 50' 48" W  View metadata report for BODC series reference number 341961
3419731991-10-23 09:20  — 1991-10-23 09:30 27° 30' 0" N  16° 18' 42" W  View metadata report for BODC series reference number 341973
3419851991-10-23 12:52  — 1991-10-23 13:04 27° 30' 0" N  16° 46' 54" W  View metadata report for BODC series reference number 341985
3419971991-10-23 16:57  — 1991-10-23 16:57 27° 30' 0" N  17° 15' 0" W  View metadata report for BODC series reference number 341997
3420001991-10-23 21:40  — 1991-10-23 21:49 27° 30' 0" N  17° 43' 11" W  View metadata report for BODC series reference number 342000
3420121991-10-24 01:23  — 1991-10-24 01:31 27° 30' 0" N  18° 11' 30" W  View metadata report for BODC series reference number 342012
3420241991-10-24 05:05  — 1991-10-24 05:17 27° 30' 0" N  18° 40' 0" W  View metadata report for BODC series reference number 342024
3420361991-10-24 08:34  — 1991-10-24 08:42 27° 30' 0" N  19° 7' 59" W  View metadata report for BODC series reference number 342036
3420481991-10-27 21:53  — 1991-10-27 22:08 28° 23' 59" N  15° 10' 0" W  View metadata report for BODC series reference number 342048
3420611991-10-28 01:22  — 1991-10-28 01:32 28° 23' 59" N  15° 23' 5" W  View metadata report for BODC series reference number 342061
3420731991-10-28 03:17  — 1991-10-28 03:27 28° 23' 59" N  15° 46' 11" W  View metadata report for BODC series reference number 342073
3420851991-10-28 05:12  — 1991-10-28 05:20 28° 23' 59" N  15° 49' 23" W  View metadata report for BODC series reference number 342085
3420971991-10-28 08:40  — 1991-10-28 08:48 28° 11' 59" N  16° 2' 30" W  View metadata report for BODC series reference number 342097
3421041991-10-28 11:38  — 1991-10-28 11:47 28° 0' 0" N  16° 15' 36" W  View metadata report for BODC series reference number 342104
3421161991-10-28 15:19  — 1991-10-28 15:30 28° 0' 0" N  16° 2' 30" W  View metadata report for BODC series reference number 342116
3421281991-10-28 16:58  — 1991-10-28 17:00 28° 0' 0" N  15° 52' 59" W  View metadata report for BODC series reference number 342128
3421411991-10-28 19:22  — 1991-10-28 19:37 28° 11' 59" N  15° 49' 29" W  View metadata report for BODC series reference number 342141
3421531991-10-28 21:34  — 1991-10-28 21:44 28° 15' 0" N  15° 36' 18" W  View metadata report for BODC series reference number 342153
3421651991-10-28 23:57  — 1991-10-29 00:11 28° 11' 59" N  15° 22' 59" W  View metadata report for BODC series reference number 342165
3421771991-10-29 02:20  — 1991-10-29 02:28 28° 11' 59" N  15° 10' 0" W  View metadata report for BODC series reference number 342177
3421891991-10-29 05:24  — 1991-10-29 05:31 28° 0' 0" N  15° 19' 59" W  View metadata report for BODC series reference number 342189
3421901991-10-29 08:16  — 1991-10-29 08:31 28° 0' 0" N  15° 10' 0" W  View metadata report for BODC series reference number 342190
3422081991-10-29 10:24  — 1991-10-29 10:39 28° 0' 0" N  14° 56' 48" W  View metadata report for BODC series reference number 342208
3422211991-10-29 13:35  — 1991-10-29 13:43 27° 48' 0" N  14° 56' 59" W  View metadata report for BODC series reference number 342221
3422331991-10-29 15:54  — 1991-10-29 16:01 27° 48' 0" N  15° 10' 0" W  View metadata report for BODC series reference number 342233
3422451991-10-29 18:16  — 1991-10-29 18:18 27° 48' 0" N  15° 22' 59" W  View metadata report for BODC series reference number 342245
3422571991-10-29 20:29  — 1991-10-29 20:31 27° 41' 59" N  15° 35' 59" W  View metadata report for BODC series reference number 342257
3422691991-10-29 23:09  — 1991-10-29 23:11 27° 48' 0" N  15° 49' 23" W  View metadata report for BODC series reference number 342269
3422701991-10-30 01:23  — 1991-10-30 01:38 27° 48' 0" N  16° 2' 30" W  View metadata report for BODC series reference number 342270
3422821991-10-30 04:03  — 1991-10-30 04:20 27° 48' 0" N  16° 15' 36" W  View metadata report for BODC series reference number 342282
3422941991-10-30 07:17  — 1991-10-30 07:32 27° 36' 0" N  16° 34' 0" W  View metadata report for BODC series reference number 342294
3423011991-10-30 10:39  — 1991-10-30 10:54 27° 36' 0" N  16° 15' 36" W  View metadata report for BODC series reference number 342301
3423131991-10-30 15:26  — 1991-10-30 15:41 27° 36' 0" N  16° 1' 59" W  View metadata report for BODC series reference number 342313